Terminal Aerodrome Forecast
Issued by NWS Cleveland, OH

Home | Current Version | Previous Version | Graphics & Text | Print | Product List | Glossary On
Versions: 1 2 3 4 5 6 7 8 9 10 11 12 13 14 15 16 17 18 19 20 21 22 23 24 25 26 27
000
FTUS41 KCLE 242000 AAA
TAFTOL
TAF AMD
KTOL 242047Z 2421/2518 24008KT P6SM BKN040
     FM250000 22004KT P6SM SCT040
     FM250800 22006KT 4SM BR BKN080
     FM251400 23012KT P6SM BKN012 OVC025=

USA.gov is the U.S. government's official web portal to all federal, state and local government web resources and services.